sensor_id;sensor_type;location;lat;lon;timestamp;P1;durP1;ratioP1;P2;durP2;ratioP2
13234;SDS011;6683;48.506;9.050;2024-03-02T00:01:10;2.50;;;2.27;;
13234;SDS011;6683;48.506;9.050;2024-03-02T00:04:12;2.37;;;2.17;;
13234;SDS011;6683;48.506;9.050;2024-03-02T00:07:16;2.77;;;2.33;;
13234;SDS011;6683;48.506;9.050;2024-03-02T00:10:19;2.53;;;2.30;;
13234;SDS011;6683;48.506;9.050;2024-03-02T00:13:25;3.00;;;2.30;;
13234;SDS011;6683;48.506;9.050;2024-03-02T00:16:29;3.27;;;2.30;;
13234;SDS011;6683;48.506;9.050;2024-03-02T00:19:32;3.70;;;2.40;;
13234;SDS011;6683;48.506;9.050;2024-03-02T00:22:36;3.30;;;2.17;;
13234;SDS011;6683;48.506;9.050;2024-03-02T00:25:39;3.10;;;2.50;;
13234;SDS011;6683;48.506;9.050;2024-03-02T00:28:42;3.47;;;2.67;;
13234;SDS011;6683;48.506;9.050;2024-03-02T00:31:45;3.93;;;2.70;;
13234;SDS011;6683;48.506;9.050;2024-03-02T00:34:48;2.40;;;2.20;;
13234;SDS011;6683;48.506;9.050;2024-03-02T00:37:52;3.57;;;2.77;;
13234;SDS011;6683;48.506;9.050;2024-03-02T00:40:54;4.20;;;3.23;;
13234;SDS011;6683;48.506;9.050;2024-03-02T00:43:57;3.50;;;2.70;;
13234;SDS011;6683;48.506;9.050;2024-03-02T00:47:00;3.93;;;3.10;;
13234;SDS011;6683;48.506;9.050;2024-03-02T00:50:03;3.33;;;2.77;;
13234;SDS011;6683;48.506;9.050;2024-03-02T00:53:09;3.20;;;2.90;;
13234;SDS011;6683;48.506;9.050;2024-03-02T00:56:13;4.40;;;2.93;;
13234;SDS011;6683;48.506;9.050;2024-03-02T00:59:15;3.90;;;2.83;;
13234;SDS011;6683;48.506;9.050;2024-03-02T01:02:17;3.97;;;3.10;;
13234;SDS011;6683;48.506;9.050;2024-03-02T01:05:20;3.57;;;2.83;;
13234;SDS011;6683;48.506;9.050;2024-03-02T01:08:24;4.30;;;3.53;;
13234;SDS011;6683;48.506;9.050;2024-03-02T01:11:26;3.10;;;2.80;;
13234;SDS011;6683;48.506;9.050;2024-03-02T01:14:28;4.07;;;2.77;;
13234;SDS011;6683;48.506;9.050;2024-03-02T01:17:30;3.33;;;3.03;;
13234;SDS011;6683;48.506;9.050;2024-03-02T01:20:32;3.07;;;2.77;;
13234;SDS011;6683;48.506;9.050;2024-03-02T01:23:36;4.37;;;3.10;;
13234;SDS011;6683;48.506;9.050;2024-03-02T01:26:38;3.17;;;2.73;;
13234;SDS011;6683;48.506;9.050;2024-03-02T01:29:40;6.17;;;3.03;;
13234;SDS011;6683;48.506;9.050;2024-03-02T01:32:43;7.17;;;2.90;;
13234;SDS011;6683;48.506;9.050;2024-03-02T01:35:45;4.40;;;2.80;;
13234;SDS011;6683;48.506;9.050;2024-03-02T01:38:48;4.30;;;3.03;;
13234;SDS011;6683;48.506;9.050;2024-03-02T01:41:51;3.13;;;2.63;;
13234;SDS011;6683;48.506;9.050;2024-03-02T01:44:53;2.57;;;2.37;;
13234;SDS011;6683;48.506;9.050;2024-03-02T01:47:55;3.23;;;2.50;;
13234;SDS011;6683;48.506;9.050;2024-03-02T01:50:57;3.73;;;2.80;;
13234;SDS011;6683;48.506;9.050;2024-03-02T01:54:00;2.60;;;2.37;;
13234;SDS011;6683;48.506;9.050;2024-03-02T01:57:03;3.53;;;2.60;;
13234;SDS011;6683;48.506;9.050;2024-03-02T02:00:07;2.87;;;2.50;;
13234;SDS011;6683;48.506;9.050;2024-03-02T02:03:10;2.93;;;2.53;;
13234;SDS011;6683;48.506;9.050;2024-03-02T02:06:13;3.07;;;2.53;;
13234;SDS011;6683;48.506;9.050;2024-03-02T02:09:16;2.90;;;2.60;;
13234;SDS011;6683;48.506;9.050;2024-03-02T02:12:18;4.47;;;2.90;;
13234;SDS011;6683;48.506;9.050;2024-03-02T02:15:23;4.27;;;2.70;;
13234;SDS011;6683;48.506;9.050;2024-03-02T02:18:27;3.13;;;2.60;;
13234;SDS011;6683;48.506;9.050;2024-03-02T02:21:30;3.00;;;2.70;;
13234;SDS011;6683;48.506;9.050;2024-03-02T02:24:32;4.83;;;3.23;;
13234;SDS011;6683;48.506;9.050;2024-03-02T02:27:34;4.13;;;2.90;;
13234;SDS011;6683;48.506;9.050;2024-03-02T02:30:36;3.10;;;2.50;;
13234;SDS011;6683;48.506;9.050;2024-03-02T02:33:39;4.43;;;2.80;;
13234;SDS011;6683;48.506;9.050;2024-03-02T02:36:42;3.10;;;2.80;;
13234;SDS011;6683;48.506;9.050;2024-03-02T02:39:44;5.13;;;3.23;;
13234;SDS011;6683;48.506;9.050;2024-03-02T02:42:46;4.37;;;3.30;;
13234;SDS011;6683;48.506;9.050;2024-03-02T02:45:49;3.10;;;2.80;;
13234;SDS011;6683;48.506;9.050;2024-03-02T02:48:51;3.83;;;3.00;;
13234;SDS011;6683;48.506;9.050;2024-03-02T02:51:55;3.07;;;2.77;;
13234;SDS011;6683;48.506;9.050;2024-03-02T02:54:57;3.50;;;2.73;;
13234;SDS011;6683;48.506;9.050;2024-03-02T02:57:59;3.30;;;3.00;;
13234;SDS011;6683;48.506;9.050;2024-03-02T03:01:01;4.53;;;3.13;;
13234;SDS011;6683;48.506;9.050;2024-03-02T03:04:03;3.63;;;3.20;;
13234;SDS011;6683;48.506;9.050;2024-03-02T03:07:07;2.80;;;2.33;;
13234;SDS011;6683;48.506;9.050;2024-03-02T03:10:09;3.27;;;2.90;;
13234;SDS011;6683;48.506;9.050;2024-03-02T03:13:12;3.23;;;2.47;;
13234;SDS011;6683;48.506;9.050;2024-03-02T03:16:14;3.70;;;2.57;;
13234;SDS011;6683;48.506;9.050;2024-03-02T03:19:16;4.93;;;2.53;;
13234;SDS011;6683;48.506;9.050;2024-03-02T03:22:19;4.40;;;2.70;;
13234;SDS011;6683;48.506;9.050;2024-03-02T03:25:21;3.20;;;2.70;;
13234;SDS011;6683;48.506;9.050;2024-03-02T03:28:23;3.00;;;2.40;;
13234;SDS011;6683;48.506;9.050;2024-03-02T03:31:26;3.73;;;2.80;;
13234;SDS011;6683;48.506;9.050;2024-03-02T03:34:28;3.73;;;2.80;;
13234;SDS011;6683;48.506;9.050;2024-03-02T03:37:31;3.20;;;2.90;;
13234;SDS011;6683;48.506;9.050;2024-03-02T03:40:33;3.57;;;3.00;;
13234;SDS011;6683;48.506;9.050;2024-03-02T03:43:36;3.47;;;2.67;;
13234;SDS011;6683;48.506;9.050;2024-03-02T03:46:38;3.60;;;2.50;;
13234;SDS011;6683;48.506;9.050;2024-03-02T03:49:40;2.87;;;2.40;;
13234;SDS011;6683;48.506;9.050;2024-03-02T03:52:43;3.20;;;2.77;;
13234;SDS011;6683;48.506;9.050;2024-03-02T03:55:45;3.23;;;2.30;;
13234;SDS011;6683;48.506;9.050;2024-03-02T03:58:49;3.20;;;2.70;;
13234;SDS011;6683;48.506;9.050;2024-03-02T04:01:51;2.90;;;2.57;;
13234;SDS011;6683;48.506;9.050;2024-03-02T04:04:53;2.80;;;2.50;;
13234;SDS011;6683;48.506;9.050;2024-03-02T04:07:56;3.37;;;2.60;;
13234;SDS011;6683;48.506;9.050;2024-03-02T04:10:58;2.60;;;2.33;;
13234;SDS011;6683;48.506;9.050;2024-03-02T04:14:02;3.83;;;3.10;;
13234;SDS011;6683;48.506;9.050;2024-03-02T04:17:06;2.47;;;2.20;;
13234;SDS011;6683;48.506;9.050;2024-03-02T04:20:08;4.80;;;2.80;;
13234;SDS011;6683;48.506;9.050;2024-03-02T04:23:13;3.17;;;2.60;;
13234;SDS011;6683;48.506;9.050;2024-03-02T04:26:16;4.77;;;2.83;;
13234;SDS011;6683;48.506;9.050;2024-03-02T04:29:22;6.63;;;3.63;;
13234;SDS011;6683;48.506;9.050;2024-03-02T04:32:24;3.30;;;2.87;;
13234;SDS011;6683;48.506;9.050;2024-03-02T04:35:26;4.00;;;3.07;;
13234;SDS011;6683;48.506;9.050;2024-03-02T04:38:30;5.30;;;3.13;;
13234;SDS011;6683;48.506;9.050;2024-03-02T04:41:32;5.87;;;3.50;;
13234;SDS011;6683;48.506;9.050;2024-03-02T04:44:34;4.67;;;3.40;;
13234;SDS011;6683;48.506;9.050;2024-03-02T04:47:37;5.40;;;3.40;;
13234;SDS011;6683;48.506;9.050;2024-03-02T04:50:39;4.70;;;3.50;;
13234;SDS011;6683;48.506;9.050;2024-03-02T04:53:42;4.20;;;3.57;;
13234;SDS011;6683;48.506;9.050;2024-03-02T04:56:44;4.17;;;3.27;;
13234;SDS011;6683;48.506;9.050;2024-03-02T04:59:49;4.70;;;2.90;;
13234;SDS011;6683;48.506;9.050;2024-03-02T05:02:51;4.17;;;2.83;;
13234;SDS011;6683;48.506;9.050;2024-03-02T05:05:53;5.80;;;3.07;;
13234;SDS011;6683;48.506;9.050;2024-03-02T05:08:57;3.80;;;2.93;;
13234;SDS011;6683;48.506;9.050;2024-03-02T05:11:59;3.93;;;2.50;;
13234;SDS011;6683;48.506;9.050;2024-03-02T05:15:29;3.93;;;2.70;;
13234;SDS011;6683;48.506;9.050;2024-03-02T05:18:31;3.50;;;2.63;;
13234;SDS011;6683;48.506;9.050;2024-03-02T05:21:33;3.80;;;3.03;;
13234;SDS011;6683;48.506;9.050;2024-03-02T05:24:37;5.63;;;2.97;;
13234;SDS011;6683;48.506;9.050;2024-03-02T05:27:39;3.77;;;3.00;;
13234;SDS011;6683;48.506;9.050;2024-03-02T05:30:42;4.53;;;3.23;;
13234;SDS011;6683;48.506;9.050;2024-03-02T05:33:44;3.70;;;2.40;;
13234;SDS011;6683;48.506;9.050;2024-03-02T05:36:46;3.07;;;2.70;;
13234;SDS011;6683;48.506;9.050;2024-03-02T05:39:49;3.03;;;2.30;;
13234;SDS011;6683;48.506;9.050;2024-03-02T05:42:51;4.53;;;2.73;;
13234;SDS011;6683;48.506;9.050;2024-03-02T05:45:53;4.33;;;2.67;;
13234;SDS011;6683;48.506;9.050;2024-03-02T05:48:56;6.23;;;2.70;;
13234;SDS011;6683;48.506;9.050;2024-03-02T05:51:58;8.10;;;3.30;;
13234;SDS011;6683;48.506;9.050;2024-03-02T05:55:01;4.47;;;2.60;;
13234;SDS011;6683;48.506;9.050;2024-03-02T05:58:05;3.97;;;2.77;;
13234;SDS011;6683;48.506;9.050;2024-03-02T06:01:22;4.67;;;2.30;;
13234;SDS011;6683;48.506;9.050;2024-03-02T06:04:28;4.07;;;2.50;;
13234;SDS011;6683;48.506;9.050;2024-03-02T06:07:30;7.70;;;2.63;;
13234;SDS011;6683;48.506;9.050;2024-03-02T06:10:34;4.17;;;2.53;;
13234;SDS011;6683;48.506;9.050;2024-03-02T06:13:36;2.57;;;2.20;;
13234;SDS011;6683;48.506;9.050;2024-03-02T06:16:38;4.97;;;2.43;;
13234;SDS011;6683;48.506;9.050;2024-03-02T06:19:40;4.37;;;3.03;;
13234;SDS011;6683;48.506;9.050;2024-03-02T06:22:42;4.53;;;2.93;;
13234;SDS011;6683;48.506;9.050;2024-03-02T06:25:45;6.03;;;2.87;;
13234;SDS011;6683;48.506;9.050;2024-03-02T06:28:47;11.37;;;3.90;;
13234;SDS011;6683;48.506;9.050;2024-03-02T06:31:49;19.30;;;4.13;;
13234;SDS011;6683;48.506;9.050;2024-03-02T06:34:51;6.67;;;2.60;;
13234;SDS011;6683;48.506;9.050;2024-03-02T06:37:53;8.83;;;3.27;;
13234;SDS011;6683;48.506;9.050;2024-03-02T06:40:57;9.93;;;3.20;;
13234;SDS011;6683;48.506;9.050;2024-03-02T06:43:59;5.97;;;2.50;;
13234;SDS011;6683;48.506;9.050;2024-03-02T06:47:01;6.17;;;2.87;;
13234;SDS011;6683;48.506;9.050;2024-03-02T06:50:04;5.97;;;2.67;;
13234;SDS011;6683;48.506;9.050;2024-03-02T06:53:07;7.73;;;2.90;;
13234;SDS011;6683;48.506;9.050;2024-03-02T06:56:10;5.77;;;3.20;;
13234;SDS011;6683;48.506;9.050;2024-03-02T06:59:12;5.73;;;2.90;;
13234;SDS011;6683;48.506;9.050;2024-03-02T07:02:14;7.13;;;3.37;;
13234;SDS011;6683;48.506;9.050;2024-03-02T07:05:16;6.17;;;3.70;;
13234;SDS011;6683;48.506;9.050;2024-03-02T07:08:19;10.27;;;3.93;;
13234;SDS011;6683;48.506;9.050;2024-03-02T07:11:22;5.90;;;3.20;;
13234;SDS011;6683;48.506;9.050;2024-03-02T07:14:24;7.80;;;3.37;;
13234;SDS011;6683;48.506;9.050;2024-03-02T07:17:46;5.43;;;3.40;;
13234;SDS011;6683;48.506;9.050;2024-03-02T07:20:48;8.60;;;3.60;;
13234;SDS011;6683;48.506;9.050;2024-03-02T07:23:50;8.43;;;4.00;;
13234;SDS011;6683;48.506;9.050;2024-03-02T07:26:54;5.03;;;3.43;;
13234;SDS011;6683;48.506;9.050;2024-03-02T07:29:56;6.03;;;3.20;;
13234;SDS011;6683;48.506;9.050;2024-03-02T07:32:58;5.27;;;3.60;;
13234;SDS011;6683;48.506;9.050;2024-03-02T07:36:00;8.43;;;3.67;;
13234;SDS011;6683;48.506;9.050;2024-03-02T07:39:02;5.10;;;2.43;;
13234;SDS011;6683;48.506;9.050;2024-03-02T07:42:06;6.60;;;3.23;;
13234;SDS011;6683;48.506;9.050;2024-03-02T07:45:08;6.20;;;3.20;;
13234;SDS011;6683;48.506;9.050;2024-03-02T07:48:11;4.97;;;3.20;;
13234;SDS011;6683;48.506;9.050;2024-03-02T07:51:13;14.73;;;3.77;;
13234;SDS011;6683;48.506;9.050;2024-03-02T07:54:15;4.93;;;2.90;;
13234;SDS011;6683;48.506;9.050;2024-03-02T07:57:18;8.53;;;4.03;;
13234;SDS011;6683;48.506;9.050;2024-03-02T08:00:21;10.50;;;3.33;;
13234;SDS011;6683;48.506;9.050;2024-03-02T08:03:23;4.30;;;3.20;;
13234;SDS011;6683;48.506;9.050;2024-03-02T08:06:25;7.90;;;2.93;;
13234;SDS011;6683;48.506;9.050;2024-03-02T08:09:28;6.23;;;3.23;;
13234;SDS011;6683;48.506;9.050;2024-03-02T08:12:32;12.70;;;3.40;;
13234;SDS011;6683;48.506;9.050;2024-03-02T08:15:34;10.83;;;3.70;;
13234;SDS011;6683;48.506;9.050;2024-03-02T08:18:36;6.33;;;3.00;;
13234;SDS011;6683;48.506;9.050;2024-03-02T08:21:38;4.53;;;2.63;;
13234;SDS011;6683;48.506;9.050;2024-03-02T08:24:40;10.70;;;3.50;;
13234;SDS011;6683;48.506;9.050;2024-03-02T08:27:44;5.93;;;3.03;;
13234;SDS011;6683;48.506;9.050;2024-03-02T08:30:46;7.30;;;2.67;;
13234;SDS011;6683;48.506;9.050;2024-03-02T08:33:48;5.33;;;3.10;;
13234;SDS011;6683;48.506;9.050;2024-03-02T08:36:50;5.30;;;3.17;;
13234;SDS011;6683;48.506;9.050;2024-03-02T08:39:52;4.20;;;3.27;;
13234;SDS011;6683;48.506;9.050;2024-03-02T08:42:55;8.43;;;3.53;;
13234;SDS011;6683;48.506;9.050;2024-03-02T08:45:57;7.80;;;4.10;;
13234;SDS011;6683;48.506;9.050;2024-03-02T08:48:59;5.13;;;3.57;;
13234;SDS011;6683;48.506;9.050;2024-03-02T08:52:02;6.03;;;4.13;;
13234;SDS011;6683;48.506;9.050;2024-03-02T08:55:05;6.70;;;3.87;;
13234;SDS011;6683;48.506;9.050;2024-03-02T08:58:09;5.77;;;3.73;;
13234;SDS011;6683;48.506;9.050;2024-03-02T09:01:11;5.97;;;4.20;;
13234;SDS011;6683;48.506;9.050;2024-03-02T09:04:13;4.20;;;3.60;;
13234;SDS011;6683;48.506;9.050;2024-03-02T09:07:16;4.47;;;3.73;;
13234;SDS011;6683;48.506;9.050;2024-03-02T09:10:19;5.43;;;4.10;;
13234;SDS011;6683;48.506;9.050;2024-03-02T09:13:22;6.60;;;4.27;;
13234;SDS011;6683;48.506;9.050;2024-03-02T09:16:24;5.37;;;4.70;;
13234;SDS011;6683;48.506;9.050;2024-03-02T09:19:30;4.67;;;4.20;;
13234;SDS011;6683;48.506;9.050;2024-03-02T09:22:32;5.40;;;4.77;;
13234;SDS011;6683;48.506;9.050;2024-03-02T09:25:34;5.93;;;4.10;;
13234;SDS011;6683;48.506;9.050;2024-03-02T09:28:38;5.70;;;5.10;;
13234;SDS011;6683;48.506;9.050;2024-03-02T09:31:44;5.03;;;4.43;;
13234;SDS011;6683;48.506;9.050;2024-03-02T09:34:46;5.57;;;4.70;;
13234;SDS011;6683;48.506;9.050;2024-03-02T09:37:49;5.03;;;4.27;;
13234;SDS011;6683;48.506;9.050;2024-03-02T09:40:51;5.23;;;4.73;;
13234;SDS011;6683;48.506;9.050;2024-03-02T09:43:55;5.97;;;4.50;;
13234;SDS011;6683;48.506;9.050;2024-03-02T09:46:57;5.33;;;4.63;;
13234;SDS011;6683;48.506;9.050;2024-03-02T09:49:59;4.73;;;3.73;;
13234;SDS011;6683;48.506;9.050;2024-03-02T09:53:01;3.93;;;3.57;;
13234;SDS011;6683;48.506;9.050;2024-03-02T09:56:04;4.13;;;3.73;;
13234;SDS011;6683;48.506;9.050;2024-03-02T09:59:08;5.47;;;4.10;;
13234;SDS011;6683;48.506;9.050;2024-03-02T10:02:10;4.13;;;3.73;;
13234;SDS011;6683;48.506;9.050;2024-03-02T10:05:13;4.77;;;3.83;;
13234;SDS011;6683;48.506;9.050;2024-03-02T10:08:24;3.70;;;3.40;;
13234;SDS011;6683;48.506;9.050;2024-03-02T10:11:27;3.90;;;3.43;;
13234;SDS011;6683;48.506;9.050;2024-03-02T10:14:32;4.07;;;3.53;;
13234;SDS011;6683;48.506;9.050;2024-03-02T10:17:34;3.83;;;3.43;;
13234;SDS011;6683;48.506;9.050;2024-03-02T10:20:36;3.20;;;2.93;;
13234;SDS011;6683;48.506;9.050;2024-03-02T10:23:39;3.97;;;3.57;;
13234;SDS011;6683;48.506;9.050;2024-03-02T10:26:41;4.80;;;3.57;;
13234;SDS011;6683;48.506;9.050;2024-03-02T10:29:46;3.80;;;3.50;;
13234;SDS011;6683;48.506;9.050;2024-03-02T10:32:49;3.97;;;3.30;;
13234;SDS011;6683;48.506;9.050;2024-03-02T10:35:51;3.17;;;2.87;;
13234;SDS011;6683;48.506;9.050;2024-03-02T10:38:53;4.47;;;3.40;;
13234;SDS011;6683;48.506;9.050;2024-03-02T10:41:59;3.67;;;3.20;;
13234;SDS011;6683;48.506;9.050;2024-03-02T10:45:05;3.20;;;2.87;;
13234;SDS011;6683;48.506;9.050;2024-03-02T10:48:09;4.03;;;3.20;;
13234;SDS011;6683;48.506;9.050;2024-03-02T10:51:11;2.93;;;2.67;;
13234;SDS011;6683;48.506;9.050;2024-03-02T10:54:13;8.57;;;3.53;;
13234;SDS011;6683;48.506;9.050;2024-03-02T10:57:16;3.53;;;3.23;;
13234;SDS011;6683;48.506;9.050;2024-03-02T11:00:24;3.17;;;2.87;;
13234;SDS011;6683;48.506;9.050;2024-03-02T11:03:30;3.27;;;2.70;;
13234;SDS011;6683;48.506;9.050;2024-03-02T11:06:37;2.63;;;2.40;;
13234;SDS011;6683;48.506;9.050;2024-03-02T11:09:41;2.70;;;2.50;;
13234;SDS011;6683;48.506;9.050;2024-03-02T11:12:53;4.53;;;2.30;;
13234;SDS011;6683;48.506;9.050;2024-03-02T11:16:05;2.37;;;2.17;;
13234;SDS011;6683;48.506;9.050;2024-03-02T11:19:26;3.87;;;2.20;;
13234;SDS011;6683;48.506;9.050;2024-03-02T11:22:29;2.43;;;2.10;;
13234;SDS011;6683;48.506;9.050;2024-03-02T11:25:32;2.23;;;2.03;;
13234;SDS011;6683;48.506;9.050;2024-03-02T11:28:34;1.80;;;1.60;;
13234;SDS011;6683;48.506;9.050;2024-03-02T11:35:00;1.80;;;1.50;;
13234;SDS011;6683;48.506;9.050;2024-03-02T11:38:04;1.63;;;1.53;;
13234;SDS011;6683;48.506;9.050;2024-03-02T11:41:08;1.90;;;1.63;;
13234;SDS011;6683;48.506;9.050;2024-03-02T11:44:11;10.90;;;1.77;;
13234;SDS011;6683;48.506;9.050;2024-03-02T11:47:15;1.50;;;1.40;;
13234;SDS011;6683;48.506;9.050;2024-03-02T11:50:27;2.10;;;1.30;;
13234;SDS011;6683;48.506;9.050;2024-03-02T11:53:30;2.80;;;1.37;;
13234;SDS011;6683;48.506;9.050;2024-03-02T11:56:34;2.43;;;1.30;;
13234;SDS011;6683;48.506;9.050;2024-03-02T11:59:36;1.40;;;1.30;;
13234;SDS011;6683;48.506;9.050;2024-03-02T12:02:40;1.20;;;1.10;;
13234;SDS011;6683;48.506;9.050;2024-03-02T12:05:47;1.20;;;1.10;;
13234;SDS011;6683;48.506;9.050;2024-03-02T12:08:52;1.77;;;0.80;;
13234;SDS011;6683;48.506;9.050;2024-03-02T12:12:01;1.57;;;1.00;;
13234;SDS011;6683;48.506;9.050;2024-03-02T12:15:05;1.10;;;1.00;;
13234;SDS011;6683;48.506;9.050;2024-03-02T12:18:11;1.20;;;0.90;;
13234;SDS011;6683;48.506;9.050;2024-03-02T12:21:13;0.70;;;0.70;;
13234;SDS011;6683;48.506;9.050;2024-03-02T12:24:15;0.97;;;0.80;;
13234;SDS011;6683;48.506;9.050;2024-03-02T12:27:17;1.00;;;0.90;;
13234;SDS011;6683;48.506;9.050;2024-03-02T12:30:21;0.90;;;0.90;;
13234;SDS011;6683;48.506;9.050;2024-03-02T12:33:25;0.83;;;0.80;;
13234;SDS011;6683;48.506;9.050;2024-03-02T12:36:29;1.13;;;0.80;;
13234;SDS011;6683;48.506;9.050;2024-03-02T12:39:31;0.97;;;0.70;;
13234;SDS011;6683;48.506;9.050;2024-03-02T12:42:33;2.87;;;0.70;;
13234;SDS011;6683;48.506;9.050;2024-03-02T12:45:36;0.90;;;0.80;;
13234;SDS011;6683;48.506;9.050;2024-03-02T12:48:40;0.60;;;0.60;;
13234;SDS011;6683;48.506;9.050;2024-03-02T12:51:42;1.80;;;0.73;;
13234;SDS011;6683;48.506;9.050;2024-03-02T12:54:47;0.80;;;0.70;;
13234;SDS011;6683;48.506;9.050;2024-03-02T12:57:49;0.70;;;0.70;;
13234;SDS011;6683;48.506;9.050;2024-03-02T13:01:05;1.93;;;0.70;;
13234;SDS011;6683;48.506;9.050;2024-03-02T13:04:10;1.00;;;0.90;;
13234;SDS011;6683;48.506;9.050;2024-03-02T13:07:12;1.10;;;0.80;;
13234;SDS011;6683;48.506;9.050;2024-03-02T13:10:16;1.27;;;0.80;;
13234;SDS011;6683;48.506;9.050;2024-03-02T13:13:18;0.90;;;0.90;;
13234;SDS011;6683;48.506;9.050;2024-03-02T13:16:20;0.80;;;0.77;;
13234;SDS011;6683;48.506;9.050;2024-03-02T13:19:24;1.30;;;0.93;;
13234;SDS011;6683;48.506;9.050;2024-03-02T13:22:29;1.03;;;0.83;;
13234;SDS011;6683;48.506;9.050;2024-03-02T13:25:31;0.70;;;0.70;;
13234;SDS011;6683;48.506;9.050;2024-03-02T13:28:34;1.23;;;1.10;;
13234;SDS011;6683;48.506;9.050;2024-03-02T13:31:36;0.93;;;0.83;;
13234;SDS011;6683;48.506;9.050;2024-03-02T13:34:39;0.97;;;0.90;;
13234;SDS011;6683;48.506;9.050;2024-03-02T13:37:41;1.77;;;0.90;;
13234;SDS011;6683;48.506;9.050;2024-03-02T13:40:43;0.90;;;0.80;;
13234;SDS011;6683;48.506;9.050;2024-03-02T13:43:45;1.20;;;0.87;;
13234;SDS011;6683;48.506;9.050;2024-03-02T13:46:47;1.03;;;1.03;;
13234;SDS011;6683;48.506;9.050;2024-03-02T13:49:52;1.13;;;1.03;;
13234;SDS011;6683;48.506;9.050;2024-03-02T13:52:55;0.80;;;0.80;;
13234;SDS011;6683;48.506;9.050;2024-03-02T13:55:57;0.83;;;0.70;;
13234;SDS011;6683;48.506;9.050;2024-03-02T13:58:59;1.13;;;0.90;;
13234;SDS011;6683;48.506;9.050;2024-03-02T14:02:02;1.00;;;0.90;;
13234;SDS011;6683;48.506;9.050;2024-03-02T14:05:07;1.00;;;0.90;;
13234;SDS011;6683;48.506;9.050;2024-03-02T14:08:11;1.03;;;0.90;;
13234;SDS011;6683;48.506;9.050;2024-03-02T14:11:13;0.70;;;0.70;;
13234;SDS011;6683;48.506;9.050;2024-03-02T14:14:16;0.70;;;0.70;;
13234;SDS011;6683;48.506;9.050;2024-03-02T14:17:18;0.90;;;0.80;;
13234;SDS011;6683;48.506;9.050;2024-03-02T14:20:22;0.73;;;0.73;;
13234;SDS011;6683;48.506;9.050;2024-03-02T14:23:24;0.53;;;0.53;;
13234;SDS011;6683;48.506;9.050;2024-03-02T14:26:28;0.60;;;0.50;;
13234;SDS011;6683;48.506;9.050;2024-03-02T14:29:30;1.07;;;0.60;;
13234;SDS011;6683;48.506;9.050;2024-03-02T14:32:36;1.97;;;0.70;;
13234;SDS011;6683;48.506;9.050;2024-03-02T14:35:39;0.60;;;0.50;;
13234;SDS011;6683;48.506;9.050;2024-03-02T14:38:42;0.50;;;0.50;;
13234;SDS011;6683;48.506;9.050;2024-03-02T14:41:44;0.63;;;0.50;;
13234;SDS011;6683;48.506;9.050;2024-03-02T14:44:46;0.40;;;0.40;;
13234;SDS011;6683;48.506;9.050;2024-03-02T14:47:48;0.93;;;0.50;;
13234;SDS011;6683;48.506;9.050;2024-03-02T14:50:51;0.50;;;0.50;;
13234;SDS011;6683;48.506;9.050;2024-03-02T14:53:54;0.50;;;0.50;;
13234;SDS011;6683;48.506;9.050;2024-03-02T14:56:56;0.40;;;0.40;;
13234;SDS011;6683;48.506;9.050;2024-03-02T14:59:58;0.43;;;0.43;;
13234;SDS011;6683;48.506;9.050;2024-03-02T15:03:00;0.73;;;0.40;;
13234;SDS011;6683;48.506;9.050;2024-03-02T15:06:05;0.50;;;0.50;;
13234;SDS011;6683;48.506;9.050;2024-03-02T15:09:08;1.07;;;0.50;;
13234;SDS011;6683;48.506;9.050;2024-03-02T15:12:10;0.73;;;0.50;;
13234;SDS011;6683;48.506;9.050;2024-03-02T15:15:14;0.50;;;0.50;;
13234;SDS011;6683;48.506;9.050;2024-03-02T15:18:17;0.90;;;0.70;;
13234;SDS011;6683;48.506;9.050;2024-03-02T15:21:20;0.83;;;0.77;;
13234;SDS011;6683;48.506;9.050;2024-03-02T15:24:22;0.60;;;0.60;;
13234;SDS011;6683;48.506;9.050;2024-03-02T15:27:25;1.00;;;0.70;;
13234;SDS011;6683;48.506;9.050;2024-03-02T15:30:28;0.57;;;0.57;;
13234;SDS011;6683;48.506;9.050;2024-03-02T15:33:30;0.70;;;0.70;;
13234;SDS011;6683;48.506;9.050;2024-03-02T15:36:33;1.10;;;0.73;;
13234;SDS011;6683;48.506;9.050;2024-03-02T15:39:35;1.10;;;0.70;;
13234;SDS011;6683;48.506;9.050;2024-03-02T15:42:37;1.43;;;0.90;;
13234;SDS011;6683;48.506;9.050;2024-03-02T15:45:39;0.77;;;0.70;;
13234;SDS011;6683;48.506;9.050;2024-03-02T15:48:41;0.70;;;0.70;;
13234;SDS011;6683;48.506;9.050;2024-03-02T15:51:45;0.80;;;0.80;;
13234;SDS011;6683;48.506;9.050;2024-03-02T15:54:47;0.63;;;0.60;;
13234;SDS011;6683;48.506;9.050;2024-03-02T15:57:50;2.93;;;0.63;;
13234;SDS011;6683;48.506;9.050;2024-03-02T16:00:52;0.60;;;0.60;;
13234;SDS011;6683;48.506;9.050;2024-03-02T16:03:54;0.60;;;0.60;;
13234;SDS011;6683;48.506;9.050;2024-03-02T16:06:57;0.90;;;0.60;;
13234;SDS011;6683;48.506;9.050;2024-03-02T16:10:00;0.73;;;0.53;;
13234;SDS011;6683;48.506;9.050;2024-03-02T16:13:06;1.47;;;0.60;;
13234;SDS011;6683;48.506;9.050;2024-03-02T16:16:08;0.70;;;0.50;;
13234;SDS011;6683;48.506;9.050;2024-03-02T16:19:11;1.47;;;0.50;;
13234;SDS011;6683;48.506;9.050;2024-03-02T16:22:15;0.60;;;0.60;;
13234;SDS011;6683;48.506;9.050;2024-03-02T16:25:17;0.57;;;0.57;;
13234;SDS011;6683;48.506;9.050;2024-03-02T16:28:19;0.60;;;0.57;;
13234;SDS011;6683;48.506;9.050;2024-03-02T16:31:21;2.07;;;0.60;;
13234;SDS011;6683;48.506;9.050;2024-03-02T16:34:24;1.10;;;0.83;;
13234;SDS011;6683;48.506;9.050;2024-03-02T16:37:28;1.83;;;1.30;;
13234;SDS011;6683;48.506;9.050;2024-03-02T16:40:30;3.37;;;1.63;;
13234;SDS011;6683;48.506;9.050;2024-03-02T16:43:32;5.53;;;3.90;;
13234;SDS011;6683;48.506;9.050;2024-03-02T16:46:34;16.87;;;10.83;;
13234;SDS011;6683;48.506;9.050;2024-03-02T16:49:38;13.80;;;9.87;;
13234;SDS011;6683;48.506;9.050;2024-03-02T16:52:41;8.57;;;6.97;;
13234;SDS011;6683;48.506;9.050;2024-03-02T16:55:43;4.73;;;3.90;;
13234;SDS011;6683;48.506;9.050;2024-03-02T16:58:45;4.03;;;3.10;;
13234;SDS011;6683;48.506;9.050;2024-03-02T17:01:47;2.90;;;2.30;;
13234;SDS011;6683;48.506;9.050;2024-03-02T17:04:50;2.47;;;2.20;;
13234;SDS011;6683;48.506;9.050;2024-03-02T17:07:54;1.80;;;1.70;;
13234;SDS011;6683;48.506;9.050;2024-03-02T17:10:58;2.17;;;1.50;;
13234;SDS011;6683;48.506;9.050;2024-03-02T17:14:00;1.43;;;1.33;;
13234;SDS011;6683;48.506;9.050;2024-03-02T17:17:03;1.83;;;1.30;;
13234;SDS011;6683;48.506;9.050;2024-03-02T17:20:06;2.03;;;1.27;;
13234;SDS011;6683;48.506;9.050;2024-03-02T17:23:12;2.20;;;1.70;;
13234;SDS011;6683;48.506;9.050;2024-03-02T17:26:14;1.60;;;1.50;;
13234;SDS011;6683;48.506;9.050;2024-03-02T17:29:16;1.87;;;1.63;;
13234;SDS011;6683;48.506;9.050;2024-03-02T17:32:18;2.33;;;1.63;;
13234;SDS011;6683;48.506;9.050;2024-03-02T17:35:20;3.07;;;1.90;;
13234;SDS011;6683;48.506;9.050;2024-03-02T17:38:24;2.13;;;1.80;;
13234;SDS011;6683;48.506;9.050;2024-03-02T17:41:26;2.23;;;1.90;;
13234;SDS011;6683;48.506;9.050;2024-03-02T17:44:28;3.63;;;2.30;;
13234;SDS011;6683;48.506;9.050;2024-03-02T17:47:30;2.60;;;2.07;;
13234;SDS011;6683;48.506;9.050;2024-03-02T17:50:32;3.27;;;2.00;;
13234;SDS011;6683;48.506;9.050;2024-03-02T17:53:35;2.20;;;2.00;;
13234;SDS011;6683;48.506;9.050;2024-03-02T17:56:37;3.67;;;2.10;;
13234;SDS011;6683;48.506;9.050;2024-03-02T17:59:39;2.40;;;2.20;;
13234;SDS011;6683;48.506;9.050;2024-03-02T18:02:43;3.03;;;2.70;;
13234;SDS011;6683;48.506;9.050;2024-03-02T18:05:45;2.73;;;2.40;;
13234;SDS011;6683;48.506;9.050;2024-03-02T18:08:49;2.87;;;2.50;;
13234;SDS011;6683;48.506;9.050;2024-03-02T18:11:51;2.43;;;2.23;;
13234;SDS011;6683;48.506;9.050;2024-03-02T18:14:53;4.27;;;2.73;;
13234;SDS011;6683;48.506;9.050;2024-03-02T18:17:55;3.77;;;2.60;;
13234;SDS011;6683;48.506;9.050;2024-03-02T18:26:03;2.57;;;2.37;;
13234;SDS011;6683;48.506;9.050;2024-03-02T18:29:05;3.17;;;2.87;;
13234;SDS011;6683;48.506;9.050;2024-03-02T18:32:09;3.33;;;3.07;;
13234;SDS011;6683;48.506;9.050;2024-03-02T18:35:11;3.30;;;2.90;;
13234;SDS011;6683;48.506;9.050;2024-03-02T18:38:13;5.07;;;3.37;;
13234;SDS011;6683;48.506;9.050;2024-03-02T18:41:18;3.87;;;3.03;;
13234;SDS011;6683;48.506;9.050;2024-03-02T18:44:20;4.57;;;3.50;;
13234;SDS011;6683;48.506;9.050;2024-03-02T18:47:22;5.97;;;3.37;;